createdAt,value
2023-03-13T00:00:51.927Z,98993.59
2023-03-13T00:03:56.131Z,98995.59
2023-03-13T00:06:59.734Z,99001.41
2023-03-13T00:10:02.517Z,99005.78
2023-03-13T00:13:05.415Z,99007.09
2023-03-13T00:16:09.140Z,99007.56
2023-03-13T00:19:14.009Z,99007.09
2023-03-13T00:22:16.788Z,99019.72
2023-03-13T00:25:21.151Z,99013.72
2023-03-13T00:28:23.851Z,99027.41
2023-03-13T00:31:27.453Z,99023.06
2023-03-13T00:34:31.624Z,99018.88
2023-03-13T00:37:34.396Z,99032.03
2023-03-13T00:40:38.339Z,99033.69
2023-03-13T00:43:41.748Z,99039.03
2023-03-13T00:46:45.518Z,99045.88
2023-03-13T00:49:50.425Z,99046.19
2023-03-13T00:52:53.146Z,99057.84
2023-03-13T00:55:57.467Z,99053.50
2023-03-13T00:59:01.410Z,99060.72
2023-03-13T01:02:04.214Z,99072.66
2023-03-13T01:05:09.230Z,99068.50
2023-03-13T01:08:12.019Z,99079.63
2023-03-13T01:11:15.473Z,99085.97
2023-03-13T01:14:19.508Z,99084.28
2023-03-13T01:17:22.323Z,99096.97
2023-03-13T01:20:26.472Z,99112.28
2023-03-13T01:23:29.348Z,99109.59
2023-03-13T01:26:32.805Z,99116.94
2023-03-13T01:29:35.561Z,99124.25
2023-03-13T01:32:40.829Z,99120.59
2023-03-13T01:35:45.065Z,99126.22
2023-03-13T01:38:51.531Z,99134.94
2023-03-13T01:41:56.114Z,99145.06
2023-03-13T01:45:01.776Z,99142.25
2023-03-13T01:48:05.766Z,99135.78
2023-03-13T01:51:11.530Z,99132.88
2023-03-13T01:54:16.658Z,99146.91
2023-03-13T01:57:22.373Z,99162.06
2023-03-13T02:00:26.236Z,99170.06
2023-03-13T02:03:29.525Z,99176.56
2023-03-13T02:06:35.880Z,99184.69
2023-03-13T02:09:40.254Z,99204.81
2023-03-13T02:12:43.061Z,99194.44
2023-03-13T02:15:46.400Z,99200.78
2023-03-13T02:18:49.540Z,99209.44
2023-03-13T02:22:02.282Z,99214.25
2023-03-13T02:25:09.393Z,99222.56
2023-03-13T02:28:14.797Z,99224.53
2023-03-13T02:31:17.765Z,99226.38
2023-03-13T02:34:22.689Z,99234.22
2023-03-13T02:37:27.093Z,99239.56
2023-03-13T02:40:31.750Z,99254.72
2023-03-13T02:43:36.847Z,99258.53
2023-03-13T02:46:50.389Z,99251.53
2023-03-13T02:49:53.346Z,99257.31
2023-03-13T02:52:57.238Z,99271.31
2023-03-13T02:56:00.661Z,99273.31
2023-03-13T02:59:04.831Z,99262.63
2023-03-13T03:02:07.633Z,99277.13
2023-03-13T03:05:13.725Z,99288.63
2023-03-13T03:08:16.461Z,99279.47
2023-03-13T03:11:19.258Z,99292.53
2023-03-13T03:14:23.438Z,99294.63
2023-03-13T03:17:26.367Z,99298.44
2023-03-13T03:20:31.604Z,99306.56
2023-03-13T03:23:34.925Z,99304.38
2023-03-13T03:26:37.821Z,99306.66
2023-03-13T03:29:41.958Z,99318.97
2023-03-13T03:32:44.724Z,99323.06
2023-03-13T03:35:47.617Z,99326.44
2023-03-13T03:38:50.828Z,99332.91
2023-03-13T03:41:53.575Z,99338.94
2023-03-13T03:44:57.746Z,99354.03
2023-03-13T03:48:00.761Z,99359.63
2023-03-13T03:51:03.580Z,99362.38
2023-03-13T03:54:06.444Z,99371.19
2023-03-13T03:57:09.277Z,99370.00
2023-03-13T04:00:16.154Z,99377.09
2023-03-13T04:03:18.955Z,99383.88
2023-03-13T04:06:24.498Z,99389.63
2023-03-13T04:09:32.010Z,99400.97
2023-03-13T04:12:35.052Z,99402.03
2023-03-13T04:15:40.938Z,99401.75
2023-03-13T04:18:43.731Z,99417.84
2023-03-13T04:21:46.505Z,99414.50
2023-03-13T04:24:51.568Z,99422.19
2023-03-13T04:27:54.365Z,99424.25
2023-03-13T04:31:00.584Z,99437.59
2023-03-13T04:34:06.428Z,99440.94
2023-03-13T04:37:09.273Z,99446.69
2023-03-13T04:40:13.518Z,99448.84
2023-03-13T04:43:16.340Z,99456.09
2023-03-13T04:46:20.542Z,99467.75
2023-03-13T04:49:23.517Z,99468.13
2023-03-13T04:52:26.339Z,99479.50
2023-03-13T04:55:29.157Z,99484.38
2023-03-13T04:58:32.069Z,99491.13
2023-03-13T05:01:36.291Z,99495.03
2023-03-13T05:04:40.531Z,99500.22
2023-03-13T05:07:44.370Z,99509.91
2023-03-13T05:10:48.032Z,99516.09
2023-03-13T05:13:50.783Z,99525.38
2023-03-13T05:16:54.901Z,99532.19
2023-03-13T05:20:00.114Z,99545.81
2023-03-13T05:23:05.617Z,99543.28
2023-03-13T05:26:08.367Z,99549.41
2023-03-13T05:29:11.126Z,99555.03
2023-03-13T05:32:15.296Z,99563.50
2023-03-13T05:35:18.105Z,99569.13
2023-03-13T05:38:20.968Z,99572.38
2023-03-13T05:41:23.754Z,99571.69
2023-03-13T05:44:26.481Z,99576.19
2023-03-13T05:47:30.674Z,99580.19
2023-03-13T05:50:33.515Z,99584.66
2023-03-13T05:53:36.335Z,99584.66
2023-03-13T05:56:42.085Z,99591.13
2023-03-13T05:59:45.060Z,99599.13
2023-03-13T06:02:49.210Z,99592.97
2023-03-13T06:05:58.076Z,99599.28
2023-03-13T06:09:00.925Z,99595.63
2023-03-13T06:12:04.561Z,99609.13
2023-03-13T06:15:11.686Z,99611.81
2023-03-13T06:18:16.362Z,99611.66
2023-03-13T06:21:19.067Z,99616.44
2023-03-13T06:24:21.909Z,99623.91
2023-03-13T06:27:24.689Z,99630.22
2023-03-13T06:30:27.484Z,99637.41
2023-03-13T06:33:34.584Z,99655.25
2023-03-13T06:36:37.488Z,99655.69
2023-03-13T06:39:40.316Z,99664.81
2023-03-13T06:42:45.653Z,99664.94
2023-03-13T06:45:48.724Z,99670.16
2023-03-13T06:48:53.075Z,99678.28
2023-03-13T06:51:58.308Z,99683.78
2023-03-13T06:55:01.147Z,99686.75
2023-03-13T06:58:03.915Z,99691.25
2023-03-13T07:01:10.678Z,99695.44
2023-03-13T07:04:16.356Z,99707.38
2023-03-13T07:07:30.990Z,99708.66
2023-03-13T07:10:34.449Z,99719.59
2023-03-13T07:13:37.623Z,99718.91
2023-03-13T07:16:40.482Z,99726.22
2023-03-13T07:19:44.641Z,99723.41
2023-03-13T07:22:52.209Z,99731.41
2023-03-13T07:25:55.970Z,99740.56
2023-03-13T07:28:58.759Z,99745.75
2023-03-13T07:32:01.627Z,99741.41
2023-03-13T07:35:07.861Z,99747.56
2023-03-13T07:38:11.424Z,99757.56
2023-03-13T07:41:14.453Z,99750.50
2023-03-13T07:44:18.275Z,99756.00
2023-03-13T07:47:21.048Z,99758.25
2023-03-13T07:50:25.298Z,99766.50
2023-03-13T07:53:28.946Z,99760.91
2023-03-13T07:56:31.770Z,99769.63
2023-03-13T07:59:34.618Z,99767.81
2023-03-13T08:02:37.440Z,99774.97
2023-03-13T08:05:42.112Z,99776.91
2023-03-13T08:08:45.150Z,99778.88
2023-03-13T08:11:48.986Z,99782.25
2023-03-13T08:14:51.779Z,99778.88
2023-03-13T08:17:54.568Z,99780.56
2023-03-13T08:21:04.063Z,99774.91
2023-03-13T08:24:08.177Z,99769.72
2023-03-13T08:27:10.950Z,99779.56
2023-03-13T08:30:14.302Z,99779.97
2023-03-13T08:33:17.121Z,99775.75
2023-03-13T08:36:23.275Z,99781.09
2023-03-13T08:39:26.071Z,99779.72
2023-03-13T08:42:28.828Z,99796.00
2023-03-13T08:45:31.653Z,99803.03
2023-03-13T08:48:36.872Z,99796.53
2023-03-13T08:51:42.340Z,99799.91
2023-03-13T08:54:45.141Z,99806.91
2023-03-13T08:57:47.921Z,99808.63
2023-03-13T09:00:50.729Z,99801.88
2023-03-13T09:03:53.770Z,99816.38
2023-03-13T09:06:57.940Z,99812.41
2023-03-13T09:10:00.719Z,99814.09
2023-03-13T09:13:03.707Z,99816.22
2023-03-13T09:16:10.217Z,99811.31
2023-03-13T09:19:13.277Z,99809.38
2023-03-13T09:22:17.434Z,99821.16
2023-03-13T09:25:20.574Z,99835.22
2023-03-13T09:28:23.705Z,99837.44
2023-03-13T09:31:27.663Z,99831.66
2023-03-13T09:34:30.474Z,99838.38
2023-03-13T09:37:35.764Z,99837.28
2023-03-13T09:40:39.355Z,99828.81
2023-03-13T09:43:44.593Z,99827.28
2023-03-13T09:46:51.710Z,99827.69
2023-03-13T09:49:58.830Z,99828.25
2023-03-13T09:53:05.498Z,99827.69
2023-03-13T09:56:13.451Z,99820.59
2023-03-13T09:59:20.705Z,99819.19
2023-03-13T10:02:28.172Z,99819.03
2023-03-13T10:05:31.544Z,99819.03
2023-03-13T10:08:36.216Z,99819.91
2023-03-13T10:11:42.223Z,99818.94
2023-03-13T10:14:49.430Z,99817.38
2023-03-13T10:17:52.228Z,99823.56
2023-03-13T10:20:58.014Z,99833.72
2023-03-13T10:24:07.018Z,99837.25
2023-03-13T10:27:09.973Z,99828.09
2023-03-13T10:30:28.654Z,99827.41
2023-03-13T10:33:33.344Z,99817.00
2023-03-13T10:36:41.248Z,99819.97
2023-03-13T10:39:45.341Z,99819.81
2023-03-13T10:42:48.385Z,99817.44
2023-03-13T10:45:51.162Z,99822.34
2023-03-13T10:48:55.321Z,99818.41
2023-03-13T10:52:03.947Z,99820.25
2023-03-13T10:55:08.550Z,99819.00
2023-03-13T10:58:20.682Z,99818.03
2023-03-13T11:01:24.394Z,99819.56
2023-03-13T11:04:30.957Z,99809.19
2023-03-13T11:07:34.782Z,99814.75
2023-03-13T11:10:39.070Z,99808.19
2023-03-13T11:13:43.146Z,99824.34
2023-03-13T11:16:50.509Z,99824.59
2023-03-13T11:20:04.298Z,99832.47
2023-03-13T11:23:12.512Z,99834.44
2023-03-13T11:26:22.229Z,99829.09
2023-03-13T11:29:29.603Z,99824.06
2023-03-13T11:32:36.252Z,99822.91
2023-03-13T11:35:42.585Z,99807.88
2023-03-13T11:38:47.355Z,99808.88
2023-03-13T11:41:59.764Z,99811.66
2023-03-13T11:45:04.393Z,99816.44
2023-03-13T11:48:09.503Z,99811.41
2023-03-13T11:51:21.011Z,99818.16
2023-03-13T11:54:38.721Z,99830.69
2023-03-13T11:57:45.578Z,99831.66
2023-03-13T12:00:51.859Z,99827.00
2023-03-13T12:03:58.602Z,99839.53
2023-03-13T12:07:04.892Z,99839.66
2023-03-13T12:10:12.616Z,99845.00
2023-03-13T12:13:18.509Z,99838.81
2023-03-13T12:16:24.919Z,99848.53
2023-03-13T12:19:31.781Z,99843.19
2023-03-13T12:22:40.354Z,99840.66
2023-03-13T12:25:46.021Z,99838.97
2023-03-13T12:28:52.903Z,99850.06
2023-03-13T12:31:58.962Z,99837.16
2023-03-13T12:35:11.018Z,99840.38
2023-03-13T12:38:16.433Z,99849.22
2023-03-13T12:41:21.310Z,99844.72
2023-03-13T12:44:25.532Z,99836.69
2023-03-13T12:47:32.264Z,99844.72
2023-03-13T12:50:41.306Z,99846.41
2023-03-13T12:53:53.781Z,99845.13
2023-03-13T12:57:07.125Z,99843.44
2023-03-13T13:00:17.483Z,99836.97
2023-03-13T13:03:25.049Z,99839.09
2023-03-13T13:06:31.407Z,99845.44
2023-03-13T13:09:36.361Z,99837.56
2023-03-13T13:12:40.730Z,99836.72
2023-03-13T13:15:48.289Z,99835.44
2023-03-13T13:18:52.718Z,99845.13
2023-03-13T13:22:10.502Z,99836.13
2023-03-13T13:25:33.492Z,99836.13
2023-03-13T13:28:44.038Z,99837.81
2023-03-13T13:31:57.140Z,99831.38
2023-03-13T13:35:02.525Z,99838.56
2023-03-13T13:38:23.672Z,99830.41
2023-03-13T13:41:34.320Z,99838.25
2023-03-13T13:44:37.204Z,99838.94
2023-03-13T13:47:42.302Z,99827.72
2023-03-13T13:50:59.839Z,99835.59
2023-03-13T13:54:03.716Z,99833.59
2023-03-13T13:57:09.490Z,99830.25
2023-03-13T14:00:22.611Z,99841.91
2023-03-13T14:03:27.603Z,99846.44
2023-03-13T14:06:32.803Z,99844.75
2023-03-13T14:09:38.675Z,99841.09
2023-03-13T14:12:41.438Z,99847.25
2023-03-13T14:15:45.072Z,99847.25
2023-03-13T14:18:49.531Z,99846.28
2023-03-13T14:21:52.512Z,99836.72
2023-03-13T14:24:58.544Z,99834.75
2023-03-13T14:28:03.161Z,99827.41
2023-03-13T14:31:06.094Z,99827.56
2023-03-13T14:34:10.929Z,99825.19
2023-03-13T14:37:28.606Z,99833.59
2023-03-13T14:40:32.550Z,99847.94
2023-03-13T14:43:37.137Z,99838.38
2023-03-13T14:46:43.003Z,99841.06
2023-03-13T14:49:48.236Z,99843.44
2023-03-13T14:52:52.126Z,99849.63
2023-03-13T14:56:09.846Z,99849.78
2023-03-13T14:59:17.432Z,99858.94
2023-03-13T15:02:21.841Z,99851.03
2023-03-13T15:05:35.351Z,99856.66
2023-03-13T15:08:39.135Z,99868.47
2023-03-13T15:11:43.462Z,99863.41
2023-03-13T15:14:47.248Z,99868.75
2023-03-13T15:17:50.002Z,99876.38
2023-03-13T15:20:54.911Z,99884.78
2023-03-13T15:24:01.033Z,99888.44
2023-03-13T15:27:03.792Z,99884.38
2023-03-13T15:30:07.406Z,99886.06
2023-03-13T15:33:13.480Z,99882.56
2023-03-13T15:36:17.714Z,99888.00
2023-03-13T15:39:21.189Z,99886.63
2023-03-13T15:42:26.086Z,99897.47
2023-03-13T15:45:29.070Z,99893.81
2023-03-13T15:48:32.499Z,99894.91
2023-03-13T15:51:39.688Z,99897.56
2023-03-13T15:54:44.567Z,99901.38
2023-03-13T15:57:50.374Z,99890.56
2023-03-13T16:00:53.612Z,99903.06
2023-03-13T16:03:58.268Z,99898.72
2023-03-13T16:07:02.467Z,99910.38
2023-03-13T16:10:05.695Z,99908.41
2023-03-13T16:13:10.918Z,99908.69
2023-03-13T16:16:19.614Z,99893.78
2023-03-13T16:19:22.587Z,99902.78
2023-03-13T16:22:28.077Z,99904.75
2023-03-13T16:25:31.606Z,99906.44
2023-03-13T16:28:34.372Z,99908.41
2023-03-13T16:31:37.338Z,99903.09
2023-03-13T16:34:40.209Z,99908.56
2023-03-13T16:37:44.626Z,99916.81
2023-03-13T16:40:47.461Z,99920.50
2023-03-13T16:43:50.313Z,99916.13
2023-03-13T16:47:05.188Z,99915.28
2023-03-13T16:50:15.640Z,99917.69
2023-03-13T16:53:19.716Z,99915.13
2023-03-13T16:56:24.448Z,99917.09
2023-03-13T16:59:27.199Z,99919.19
2023-03-13T17:02:31.837Z,99928.47
2023-03-13T17:05:34.621Z,99931.03
2023-03-13T17:08:40.743Z,99930.03
2023-03-13T17:11:43.768Z,99934.22
2023-03-13T17:14:46.903Z,99925.09
2023-03-13T17:17:52.394Z,99929.19
2023-03-13T17:20:55.181Z,99929.75
2023-03-13T17:24:00.483Z,99934.13
2023-03-13T17:27:03.218Z,99924.72
2023-03-13T17:30:16.618Z,99929.63
2023-03-13T17:33:19.642Z,99931.47
2023-03-13T17:36:23.733Z,99930.06
2023-03-13T17:39:27.922Z,99918.81
2023-03-13T17:42:30.648Z,99928.78
2023-03-13T17:45:36.917Z,99923.91
2023-03-13T17:48:42.240Z,99930.63
2023-03-13T17:51:46.484Z,99928.94
2023-03-13T17:54:50.695Z,99939.31
2023-03-13T17:57:53.791Z,99929.47
2023-03-13T18:00:56.573Z,99926.94
2023-03-13T18:03:59.621Z,99921.06
2023-03-13T18:07:05.710Z,99932.72
2023-03-13T18:10:12.191Z,99933.16
2023-03-13T18:13:14.933Z,99935.13
2023-03-13T18:16:19.243Z,99941.72
2023-03-13T18:19:23.091Z,99939.31
2023-03-13T18:22:26.210Z,99927.94
2023-03-13T18:25:30.693Z,99937.63
2023-03-13T18:28:33.483Z,99945.09
2023-03-13T18:31:41.992Z,99937.22
2023-03-13T18:34:46.127Z,99936.66
2023-03-13T18:37:50.218Z,99936.81
2023-03-13T18:40:55.385Z,99942.16
2023-03-13T18:43:58.186Z,99939.72
2023-03-13T18:47:00.918Z,99946.06
2023-03-13T18:50:03.752Z,99947.34
2023-03-13T18:53:07.692Z,99949.28
2023-03-13T18:56:16.137Z,99937.75
2023-03-13T18:59:20.802Z,99946.91
2023-03-13T19:02:23.698Z,99943.00
2023-03-13T19:05:26.479Z,99947.19
2023-03-13T19:08:29.295Z,99948.03
2023-03-13T19:11:34.004Z,99948.88
2023-03-13T19:14:38.121Z,99943.25
2023-03-13T19:17:41.274Z,99956.03
2023-03-13T19:20:46.333Z,99953.50
2023-03-13T19:23:49.170Z,99952.78
2023-03-13T19:26:58.334Z,99953.63
2023-03-13T19:30:01.181Z,99959.25
2023-03-13T19:33:05.836Z,99962.06
2023-03-13T19:36:13.058Z,99957.69
2023-03-13T19:39:23.679Z,99957.84
2023-03-13T19:42:28.610Z,99963.16
2023-03-13T19:45:31.390Z,99953.63
2023-03-13T19:48:34.183Z,99956.16
2023-03-13T19:51:36.954Z,99955.56
2023-03-13T19:54:39.757Z,99959.38
2023-03-13T19:57:43.990Z,99959.66
2023-03-13T20:00:46.714Z,99959.38
2023-03-13T20:03:53.365Z,99953.34
2023-03-13T20:06:56.282Z,99955.00
2023-03-13T20:10:00.879Z,99958.81
2023-03-13T20:13:05.010Z,99951.75
2023-03-13T20:16:08.135Z,99958.91
2023-03-13T20:19:12.200Z,99953.03
2023-03-13T20:22:15.778Z,99954.56
2023-03-13T20:25:18.626Z,99949.38
2023-03-13T20:28:22.826Z,99950.50
2023-03-13T20:31:26.511Z,99956.53
2023-03-13T20:34:29.416Z,99953.19
2023-03-13T20:37:32.177Z,99951.50
2023-03-13T20:40:35.556Z,99951.50
2023-03-13T20:43:40.141Z,99951.50
2023-03-13T20:46:44.776Z,99949.91
2023-03-13T20:49:47.718Z,99950.63
2023-03-13T20:52:51.061Z,99952.72
2023-03-13T20:55:54.778Z,99942.91
2023-03-13T20:58:58.897Z,99946.56
2023-03-13T21:02:01.604Z,99953.84
2023-03-13T21:05:05.581Z,99952.16
2023-03-13T21:08:08.833Z,99944.97
2023-03-13T21:11:14.678Z,99943.31
2023-03-13T21:14:18.834Z,99946.00
2023-03-13T21:17:21.898Z,99947.28
2023-03-13T21:20:24.821Z,99946.47
2023-03-13T21:23:27.576Z,99948.59
2023-03-13T21:26:30.380Z,99958.13
2023-03-13T21:29:34.591Z,99960.41
2023-03-13T21:32:37.701Z,99956.78
2023-03-13T21:35:40.594Z,99956.22
2023-03-13T21:38:43.968Z,99955.78
2023-03-13T21:41:46.754Z,99961.84
2023-03-13T21:44:53.902Z,99954.53
2023-03-13T21:47:57.099Z,99959.84
2023-03-13T21:51:02.928Z,99957.19
2023-03-13T21:54:05.835Z,99948.31
2023-03-13T21:57:08.757Z,99951.59
2023-03-13T22:00:18.313Z,99951.88
2023-03-13T22:03:21.166Z,99960.28
2023-03-13T22:06:23.990Z,99956.06
2023-03-13T22:09:29.856Z,99955.66
2023-03-13T22:12:32.671Z,99956.38
2023-03-13T22:15:36.809Z,99955.34
2023-03-13T22:18:39.785Z,99958.31
2023-03-13T22:21:45.347Z,99961.41
2023-03-13T22:24:48.079Z,99963.63
2023-03-13T22:27:52.813Z,99962.81
2023-03-13T22:30:57.017Z,99962.69
2023-03-13T22:33:59.716Z,99959.44
2023-03-13T22:37:02.535Z,99971.25
2023-03-13T22:40:05.997Z,99949.31
2023-03-13T22:43:08.731Z,99962.69
2023-03-13T22:46:12.981Z,99964.09
2023-03-13T22:49:15.716Z,99964.47
2023-03-13T22:52:22.964Z,99961.53
2023-03-13T22:55:27.145Z,99958.72
2023-03-13T22:58:29.995Z,99958.13
2023-03-13T23:01:35.310Z,99952.25
2023-03-13T23:04:38.163Z,99946.19
2023-03-13T23:07:41.304Z,99954.88
2023-03-13T23:10:45.539Z,99947.44
2023-03-13T23:13:48.502Z,99945.47
2023-03-13T23:16:52.592Z,99936.75
2023-03-13T23:19:55.388Z,99943.50
2023-03-13T23:22:58.139Z,99939.56
2023-03-13T23:26:01.223Z,99930.88
2023-03-13T23:29:04.061Z,99932.44
2023-03-13T23:32:15.645Z,99932.00
2023-03-13T23:35:18.514Z,99931.16
2023-03-13T23:38:24.119Z,99934.00
2023-03-13T23:41:26.965Z,99923.59
2023-03-13T23:44:31.206Z,99926.13
2023-03-13T23:47:35.370Z,99935.97
2023-03-13T23:50:39.403Z,99932.16
2023-03-13T23:53:43.689Z,99931.44
2023-03-13T23:56:46.443Z,99930.91
2023-03-13T23:59:49.721Z,99928.25
